createdAt,value
2018-12-17T00:14:15.402Z,1
2018-12-17T00:29:26.815Z,0.9
2018-12-17T00:44:37.213Z,1.3
2018-12-17T00:59:48.541Z,1.2
2018-12-17T01:14:59.477Z,1.1
2018-12-17T01:30:12.339Z,1.1
2018-12-17T01:45:18.386Z,1.1
2018-12-17T02:00:32.441Z,1.2
2018-12-17T02:15:45.722Z,1
2018-12-17T02:30:54.285Z,1.2
2018-12-17T02:45:57.512Z,1.3
2018-12-17T03:01:16.737Z,1.4
2018-12-17T03:16:27.470Z,1.5
2018-12-17T03:31:38.579Z,1.6
2018-12-17T03:46:49.766Z,1.9
2018-12-17T04:02:01.048Z,1.9
2018-12-17T04:17:12.244Z,2.1
2018-12-17T04:32:23.773Z,2.2
2018-12-17T04:47:35.094Z,2.4
2018-12-17T05:02:42.629Z,2.5
2018-12-17T05:17:58.009Z,2.6
2018-12-17T05:33:09.585Z,2.6
2018-12-17T05:48:21.104Z,2.7
2018-12-17T06:03:23.803Z,2.8
2018-12-17T06:18:44.486Z,2.9
2018-12-17T06:33:56.195Z,3
2018-12-17T06:49:07.670Z,3
2018-12-17T07:04:19.390Z,4.1
2018-12-17T07:19:30.887Z,3.5
2018-12-17T07:34:43.187Z,3.4
2018-12-17T07:49:55.020Z,3.6
2018-12-17T08:05:06.973Z,3.8
2018-12-17T08:20:12.459Z,4.3
2018-12-17T08:35:30.936Z,4.6
2018-12-17T08:50:43.125Z,4.2
2018-12-17T09:05:55.625Z,3.9
2018-12-17T09:21:06.955Z,3.9
2018-12-17T09:36:18.943Z,3.9
2018-12-17T09:51:31.994Z,4.2
2018-12-17T10:06:44.292Z,4.4
2018-12-17T10:21:55.186Z,4.3
2018-12-17T10:37:03.493Z,4.3
2018-12-17T10:52:19.261Z,4.4
2018-12-17T11:07:31.750Z,4.8
2018-12-17T11:22:43.991Z,5.6
2018-12-17T11:37:57.255Z,5.9
2018-12-17T11:53:10.335Z,6.4
2018-12-17T12:08:24.033Z,7.1
2018-12-17T12:23:38.096Z,7.5
2018-12-17T12:38:51.694Z,7.4
2018-12-17T12:53:58.056Z,6.9
2018-12-17T13:09:17.658Z,6.4
2018-12-17T13:24:31.075Z,6.2
2018-12-17T13:39:43.437Z,5.9
2018-12-17T13:54:55.656Z,5.5
2018-12-17T14:10:08.151Z,5.5
2018-12-17T14:25:20.719Z,5.5
2018-12-17T14:40:33.147Z,5.2
2018-12-17T14:55:45.628Z,4.9
2018-12-17T15:10:51.889Z,4.7
2018-12-17T15:26:10.169Z,4.4
2018-12-17T15:41:22.268Z,4.1
2018-12-17T15:56:33.942Z,3.9
2018-12-17T16:11:45.754Z,3.7
2018-12-17T16:26:57.671Z,3.5
2018-12-17T16:42:09.564Z,3.6
2018-12-17T16:57:21.375Z,3.6
2018-12-17T17:12:34.948Z,3.5
2018-12-17T17:27:44.617Z,3.3
2018-12-17T17:42:56.614Z,3.3
2018-12-17T17:58:08.309Z,3.3
2018-12-17T18:13:20.112Z,3.3
2018-12-17T18:28:23.956Z,3.4
2018-12-17T18:43:43.610Z,3.4
2018-12-17T18:58:55.469Z,3.5
2018-12-17T19:14:07.335Z,3.8
2018-12-17T19:29:19.352Z,4
2018-12-17T19:44:31.389Z,4.2
2018-12-17T19:59:43.484Z,4.3
2018-12-17T20:14:55.535Z,4.5
2018-12-17T20:30:07.874Z,4.6
2018-12-17T20:45:15.367Z,4.7
2018-12-17T21:00:32.319Z,4.8
2018-12-17T21:15:44.426Z,4.7
2018-12-17T21:30:56.962Z,5.7
2018-12-17T21:46:09.730Z,5.4
2018-12-17T22:01:21.949Z,4.8
2018-12-17T22:16:34.174Z,4.6
2018-12-17T22:31:46.260Z,4.5
2018-12-17T22:46:58.505Z,4.5
2018-12-17T23:02:06.620Z,4.4
2018-12-17T23:17:22.952Z,4.5
2018-12-17T23:32:34.944Z,4.6
2018-12-17T23:47:47.112Z,4.7
